createdAt,value
2022-10-19T00:00:09.298Z,9.308924
2022-10-19T00:01:09.188Z,9.308917
2022-10-19T00:02:09.227Z,9.308968
2022-10-19T00:03:09.265Z,9.308951
2022-10-19T00:04:09.174Z,9.309023
2022-10-19T00:05:10.226Z,9.308988
2022-10-19T00:06:09.253Z,9.308934
2022-10-19T00:07:09.205Z,9.309118
2022-10-19T00:08:09.269Z,9.309083
2022-10-19T00:09:09.231Z,9.308977
2022-10-19T00:10:09.297Z,9.309098
2022-10-19T00:11:09.149Z,9.309081
2022-10-19T00:12:09.375Z,9.309036
2022-10-19T00:13:09.226Z,9.309006
2022-10-19T00:14:09.215Z,9.309089
2022-10-19T00:15:09.223Z,9.308899
2022-10-19T00:16:11.332Z,9.308944
2022-10-19T00:17:09.059Z,9.308946
2022-10-19T00:18:09.101Z,9.308953
2022-10-19T00:19:09.153Z,9.308995
2022-10-19T00:20:09.147Z,9.308993
2022-10-19T00:21:09.131Z,9.309054
2022-10-19T00:22:11.681Z,9.308930
2022-10-19T00:23:09.103Z,9.308920
2022-10-19T00:24:09.065Z,9.309078
2022-10-19T00:25:09.100Z,9.309088
2022-10-19T00:26:09.098Z,9.308980
2022-10-19T00:27:09.093Z,9.308975
2022-10-19T00:28:09.137Z,9.309017
2022-10-19T00:29:09.170Z,9.309096
2022-10-19T00:30:08.938Z,9.309018
2022-10-19T00:31:08.978Z,9.309004
2022-10-19T00:32:08.990Z,9.308866
2022-10-19T00:33:09.079Z,9.308763
2022-10-19T00:34:09.061Z,9.308843
2022-10-19T00:35:08.967Z,9.309078
2022-10-19T00:36:09.070Z,9.309067
2022-10-19T00:37:09.010Z,9.308925
2022-10-19T00:38:09.052Z,9.308785
2022-10-19T00:39:09.013Z,9.308415
2022-10-19T00:40:09.076Z,9.308676
2022-10-19T00:41:08.963Z,9.308767
2022-10-19T00:42:08.933Z,9.309031
2022-10-19T00:43:08.927Z,9.309115
2022-10-19T00:44:09.010Z,9.308987
2022-10-19T00:45:08.886Z,9.309114
2022-10-19T00:46:08.965Z,9.309126
2022-10-19T00:47:08.808Z,9.308984
2022-10-19T00:48:08.827Z,9.309210
2022-10-19T00:49:10.820Z,9.309172
2022-10-19T00:50:08.862Z,9.308991
2022-10-19T00:51:08.870Z,9.309061
2022-10-19T00:52:08.908Z,9.309128
2022-10-19T00:53:08.891Z,9.309114
2022-10-19T00:54:08.898Z,9.309136
2022-10-19T00:55:08.903Z,9.309109
2022-10-19T00:56:08.831Z,9.309052
2022-10-19T00:57:08.892Z,9.309034
2022-10-19T00:58:08.773Z,9.309001
2022-10-19T00:59:08.849Z,9.309051
2022-10-19T01:00:08.823Z,9.309000
2022-10-19T01:01:08.998Z,9.308974
2022-10-19T01:02:08.777Z,9.309037
2022-10-19T01:03:08.901Z,9.309027
2022-10-19T01:04:08.707Z,9.309033
2022-10-19T01:05:08.748Z,9.308982
2022-10-19T01:06:08.833Z,9.309133
2022-10-19T01:07:08.791Z,9.309119
2022-10-19T01:08:08.782Z,9.309147
2022-10-19T01:09:09.809Z,9.309019
2022-10-19T01:10:08.771Z,9.309092
2022-10-19T01:11:08.733Z,9.309068
2022-10-19T01:12:08.779Z,9.309021
2022-10-19T01:13:08.731Z,9.308942
2022-10-19T01:14:08.722Z,9.308831
2022-10-19T01:15:08.786Z,9.308886
2022-10-19T01:16:08.747Z,9.308920
2022-10-19T01:17:08.858Z,9.308999
2022-10-19T01:18:08.684Z,9.308980
2022-10-19T01:19:08.672Z,9.308913
2022-10-19T01:20:08.654Z,9.308970
2022-10-19T01:21:08.582Z,9.309012
2022-10-19T01:22:08.790Z,9.309063
2022-10-19T01:23:08.698Z,9.309083
2022-10-19T01:24:08.749Z,9.309029
2022-10-19T01:25:08.650Z,9.309148
2022-10-19T01:26:08.654Z,9.309171
2022-10-19T01:27:08.650Z,9.309176
2022-10-19T01:28:08.683Z,9.309185
2022-10-19T01:29:08.675Z,9.309068
2022-10-19T01:30:09.688Z,9.308901
2022-10-19T01:31:08.592Z,9.308927
2022-10-19T01:32:08.585Z,9.308915
2022-10-19T01:33:08.481Z,9.309048
2022-10-19T01:34:08.558Z,9.309005
2022-10-19T01:35:08.573Z,9.308890
2022-10-19T01:36:08.550Z,9.309112
2022-10-19T01:37:08.585Z,9.309193
2022-10-19T01:38:08.541Z,9.309103
2022-10-19T01:39:08.588Z,9.309193
2022-10-19T01:40:08.583Z,9.309176
2022-10-19T01:41:08.532Z,9.309198
2022-10-19T01:42:08.534Z,9.309083
2022-10-19T01:43:08.576Z,9.309054
2022-10-19T01:44:08.529Z,9.308994
2022-10-19T01:45:08.632Z,9.309012
2022-10-19T01:46:08.474Z,9.309071
2022-10-19T01:47:08.542Z,9.309080
2022-10-19T01:48:08.427Z,9.309163
2022-10-19T01:49:08.387Z,9.309091
2022-10-19T01:50:08.403Z,9.309188
2022-10-19T01:51:08.366Z,9.309237
2022-10-19T01:52:08.475Z,9.309246
2022-10-19T01:53:08.432Z,9.309304
2022-10-19T01:54:08.452Z,9.309147
2022-10-19T01:55:08.511Z,9.309113
2022-10-19T01:56:08.431Z,9.309147
2022-10-19T01:57:08.426Z,9.309087
2022-10-19T01:58:09.616Z,9.309128
2022-10-19T01:59:08.412Z,9.309178
2022-10-19T02:00:08.431Z,9.309147
2022-10-19T02:01:08.552Z,9.309135
2022-10-19T02:02:08.475Z,9.309093
2022-10-19T02:03:08.349Z,9.309097
2022-10-19T02:04:08.390Z,9.309138
2022-10-19T02:05:09.211Z,9.309110
2022-10-19T02:06:08.349Z,9.309168
2022-10-19T02:07:08.353Z,9.309145
2022-10-19T02:08:08.377Z,9.309185
2022-10-19T02:09:08.345Z,9.309213
2022-10-19T02:10:08.461Z,9.309166
2022-10-19T02:11:08.316Z,9.309109
2022-10-19T02:12:08.346Z,9.309175
2022-10-19T02:13:08.335Z,9.309223
2022-10-19T02:14:08.297Z,9.309136
2022-10-19T02:15:08.313Z,9.309183
2022-10-19T02:16:08.262Z,9.309289
2022-10-19T02:17:08.622Z,9.309206
2022-10-19T02:18:08.305Z,9.309148
2022-10-19T02:19:08.170Z,9.309102
2022-10-19T02:20:08.133Z,9.309069
2022-10-19T02:21:09.262Z,9.309047
2022-10-19T02:22:08.186Z,9.309131
2022-10-19T02:23:08.271Z,9.309138
2022-10-19T02:24:08.288Z,9.309156
2022-10-19T02:25:08.262Z,9.309166
2022-10-19T02:26:08.264Z,9.309147
2022-10-19T02:27:08.253Z,9.309153
2022-10-19T02:28:08.288Z,9.309133
2022-10-19T02:29:08.277Z,9.309233
2022-10-19T02:30:08.188Z,9.309181
2022-10-19T02:31:08.223Z,9.309204
2022-10-19T02:32:08.183Z,9.309110
2022-10-19T02:33:08.094Z,9.309089
2022-10-19T02:34:08.077Z,9.309112
2022-10-19T02:35:08.078Z,9.309059
2022-10-19T02:36:08.044Z,9.309178
2022-10-19T02:37:08.064Z,9.309155
2022-10-19T02:38:09.076Z,9.309067
2022-10-19T02:39:08.120Z,9.309124
2022-10-19T02:40:07.999Z,9.309056
2022-10-19T02:41:08.023Z,9.309060
2022-10-19T02:42:08.096Z,9.309069
2022-10-19T02:43:08.113Z,9.309233
2022-10-19T02:44:08.099Z,9.309216
2022-10-19T02:45:08.134Z,9.309199
2022-10-19T02:46:08.131Z,9.309065
2022-10-19T02:47:08.048Z,9.309197
2022-10-19T02:48:08.066Z,9.309187
2022-10-19T02:49:08.129Z,9.309078
2022-10-19T02:50:08.145Z,9.309133
2022-10-19T02:51:08.106Z,9.309096
2022-10-19T02:52:08.075Z,9.309138
2022-10-19T02:53:08.017Z,9.309187
2022-10-19T02:54:08.085Z,9.309155
2022-10-19T02:55:07.933Z,9.309112
2022-10-19T02:56:07.936Z,9.309094
2022-10-19T02:57:08.063Z,9.309168
2022-10-19T02:58:07.928Z,9.309214
2022-10-19T02:59:07.987Z,9.309209
2022-10-19T03:00:07.984Z,9.309158
2022-10-19T03:01:08.050Z,9.309142
2022-10-19T03:02:07.970Z,9.309199
2022-10-19T03:03:07.946Z,9.309141
2022-10-19T03:04:07.937Z,9.309181
2022-10-19T03:05:07.952Z,9.309145
2022-10-19T03:06:07.937Z,9.309226
2022-10-19T03:07:07.940Z,9.309265
2022-10-19T03:08:07.941Z,9.309317
2022-10-19T03:09:07.816Z,9.309233
2022-10-19T03:10:07.837Z,9.309174
2022-10-19T03:11:07.927Z,9.309134
2022-10-19T03:12:07.831Z,9.309149
2022-10-19T03:13:07.823Z,9.309127
2022-10-19T03:14:07.832Z,9.309091
2022-10-19T03:15:07.770Z,9.309075
2022-10-19T03:16:07.874Z,9.309005
2022-10-19T03:17:07.992Z,9.308896
2022-10-19T03:18:07.853Z,9.309068
2022-10-19T03:19:07.925Z,9.309080
2022-10-19T03:20:07.829Z,9.309047
2022-10-19T03:21:07.815Z,9.309140
2022-10-19T03:22:07.814Z,9.309148
2022-10-19T03:23:08.053Z,9.309140
2022-10-19T03:24:07.811Z,9.309057
2022-10-19T03:25:07.835Z,9.309082
2022-10-19T03:26:10.048Z,9.309082
2022-10-19T03:27:07.784Z,9.309111
2022-10-19T03:28:08.874Z,9.309007
2022-10-19T03:29:07.672Z,9.309037
2022-10-19T03:30:07.703Z,9.309041
2022-10-19T03:31:07.737Z,9.309074
2022-10-19T03:32:07.700Z,9.309074
2022-10-19T03:33:07.846Z,9.309180
2022-10-19T03:34:07.748Z,9.309010
2022-10-19T03:35:07.730Z,9.309116
2022-10-19T03:36:07.735Z,9.309100
2022-10-19T03:37:07.726Z,9.309073
2022-10-19T03:38:07.740Z,9.309133
2022-10-19T03:39:07.780Z,9.309156
2022-10-19T03:40:07.749Z,9.309076
2022-10-19T03:41:07.736Z,9.309081
2022-10-19T03:42:07.782Z,9.309144
2022-10-19T03:43:07.660Z,9.309095
2022-10-19T03:44:07.718Z,9.309143
2022-10-19T03:45:07.639Z,9.309100
2022-10-19T03:46:07.634Z,9.309101
2022-10-19T03:47:07.660Z,9.309084
2022-10-19T03:48:07.604Z,9.309090
2022-10-19T03:49:07.533Z,9.309068
2022-10-19T03:50:07.689Z,9.309011
2022-10-19T03:51:07.507Z,9.309098
2022-10-19T03:52:07.542Z,9.309087
2022-10-19T03:53:07.573Z,9.309051
2022-10-19T03:54:07.499Z,9.309028
2022-10-19T03:55:07.615Z,9.309069
2022-10-19T03:56:07.635Z,9.309246
2022-10-19T03:57:07.633Z,9.308991
2022-10-19T03:58:07.582Z,9.309138
2022-10-19T03:59:07.642Z,9.309094
2022-10-19T04:00:07.571Z,9.308957
2022-10-19T04:01:07.709Z,9.308941
2022-10-19T04:02:07.611Z,9.309028
2022-10-19T04:03:07.566Z,9.309024
2022-10-19T04:04:07.527Z,9.309006
2022-10-19T04:05:07.515Z,9.309017
2022-10-19T04:06:07.545Z,9.308968
2022-10-19T04:07:07.513Z,9.309075
2022-10-19T04:08:07.402Z,9.308995
2022-10-19T04:09:07.496Z,9.309001
2022-10-19T04:10:07.377Z,9.309016
2022-10-19T04:11:07.495Z,9.309029
2022-10-19T04:12:07.525Z,9.308957
2022-10-19T04:13:07.470Z,9.308958
2022-10-19T04:14:07.503Z,9.309007
2022-10-19T04:15:07.481Z,9.308995
2022-10-19T04:16:07.454Z,9.309080
2022-10-19T04:17:07.462Z,9.309090
2022-10-19T04:18:07.441Z,9.309076
2022-10-19T04:19:08.008Z,9.309087
2022-10-19T04:20:07.383Z,9.309028
2022-10-19T04:21:07.419Z,9.309014
2022-10-19T04:22:07.428Z,9.308957
2022-10-19T04:23:07.704Z,9.309003
2022-10-19T04:24:07.413Z,9.308990
2022-10-19T04:25:07.377Z,9.308948
2022-10-19T04:26:07.412Z,9.308959
2022-10-19T04:27:07.575Z,9.309033
2022-10-19T04:28:07.270Z,9.309020
2022-10-19T04:29:07.303Z,9.309007
2022-10-19T04:30:07.366Z,9.309015
2022-10-19T04:31:07.288Z,9.308891
2022-10-19T04:32:07.391Z,9.308967
2022-10-19T04:33:07.380Z,9.309018
2022-10-19T04:34:07.315Z,9.309026
2022-10-19T04:35:07.293Z,9.309107
2022-10-19T04:36:07.304Z,9.309167
2022-10-19T04:37:07.317Z,9.309082
2022-10-19T04:38:07.435Z,9.309114
2022-10-19T04:39:07.236Z,9.309092
2022-10-19T04:40:09.461Z,9.309155
2022-10-19T04:41:08.231Z,9.309109
2022-10-19T04:42:07.212Z,9.309052
2022-10-19T04:43:07.157Z,9.308985
2022-10-19T04:44:07.144Z,9.309046
2022-10-19T04:45:07.284Z,9.309158
2022-10-19T04:46:07.190Z,9.309256
2022-10-19T04:47:07.448Z,9.309260
2022-10-19T04:48:07.185Z,9.309080
2022-10-19T04:49:07.248Z,9.309075
2022-10-19T04:50:07.156Z,9.309137
2022-10-19T04:51:07.149Z,9.309122
2022-10-19T04:52:07.167Z,9.309068
2022-10-19T04:53:07.132Z,9.309081
2022-10-19T04:54:07.111Z,9.309152
2022-10-19T04:55:08.174Z,9.309145
2022-10-19T04:56:07.111Z,9.309198
2022-10-19T04:57:07.135Z,9.309113
2022-10-19T04:58:07.039Z,9.309094
2022-10-19T04:59:07.131Z,9.308999
2022-10-19T05:00:07.027Z,9.308989
2022-10-19T05:01:07.178Z,9.309042
2022-10-19T05:02:07.086Z,9.309075
2022-10-19T05:03:07.019Z,9.309150
2022-10-19T05:04:07.088Z,9.309124
2022-10-19T05:05:07.054Z,9.309108
2022-10-19T05:06:07.111Z,9.309100
2022-10-19T05:07:07.057Z,9.309015
2022-10-19T05:08:07.122Z,9.309081
2022-10-19T05:09:07.051Z,9.308887
2022-10-19T05:10:07.065Z,9.308975
2022-10-19T05:11:07.009Z,9.308924
2022-10-19T05:12:07.065Z,9.308928
2022-10-19T05:13:07.013Z,9.309036
2022-10-19T05:14:07.082Z,9.308998
2022-10-19T05:15:06.939Z,9.309158
2022-10-19T05:16:06.891Z,9.309191
2022-10-19T05:17:06.955Z,9.309057
2022-10-19T05:18:06.883Z,9.309032
2022-10-19T05:19:06.885Z,9.309237
2022-10-19T05:20:06.874Z,9.309041
2022-10-19T05:21:06.865Z,9.309103
2022-10-19T05:22:06.859Z,9.309133
2022-10-19T05:23:07.456Z,9.309145
2022-10-19T05:24:06.840Z,9.309211
2022-10-19T05:25:06.968Z,9.309134
2022-10-19T05:26:07.650Z,9.309171
2022-10-19T05:27:07.027Z,9.309056
2022-10-19T05:28:06.991Z,9.309129
2022-10-19T05:29:06.962Z,9.309003
2022-10-19T05:30:06.892Z,9.309097
2022-10-19T05:31:06.899Z,9.309085
2022-10-19T05:32:06.884Z,9.309104
2022-10-19T05:33:06.854Z,9.309096
2022-10-19T05:35:06.773Z,9.309086
2022-10-19T05:36:06.766Z,9.309032
2022-10-19T05:37:06.877Z,9.309012
2022-10-19T05:38:06.731Z,9.309053
2022-10-19T05:39:06.766Z,9.309111
2022-10-19T05:40:06.785Z,9.308950
2022-10-19T05:41:06.748Z,9.309026
2022-10-19T05:42:06.746Z,9.308973
2022-10-19T05:43:06.743Z,9.308937
2022-10-19T05:44:06.886Z,9.309117
2022-10-19T05:45:06.887Z,9.309143
2022-10-19T05:46:06.853Z,9.309125
2022-10-19T05:47:06.836Z,9.309023
2022-10-19T05:48:06.769Z,9.308993
2022-10-19T05:49:06.863Z,9.308923
2022-10-19T05:50:06.806Z,9.309067
2022-10-19T05:51:06.766Z,9.308951
2022-10-19T05:52:06.722Z,9.309134
2022-10-19T05:53:06.740Z,9.309132
2022-10-19T05:54:06.701Z,9.309101
2022-10-19T05:55:06.657Z,9.309073
2022-10-19T05:56:06.606Z,9.309032
2022-10-19T05:57:06.688Z,9.309063
2022-10-19T05:58:06.591Z,9.309059
2022-10-19T05:59:06.600Z,9.308997
2022-10-19T06:00:06.746Z,9.309106
2022-10-19T06:01:06.649Z,9.308954
2022-10-19T06:02:06.690Z,9.309044
2022-10-19T06:03:06.667Z,9.309078
2022-10-19T06:04:06.661Z,9.309034
2022-10-19T06:05:06.654Z,9.309099
2022-10-19T06:06:06.709Z,9.309044
2022-10-19T06:07:06.633Z,9.308976
2022-10-19T06:08:06.689Z,9.308992
2022-10-19T06:09:06.619Z,9.309024
2022-10-19T06:10:06.672Z,9.309057
2022-10-19T06:11:07.190Z,9.309091
2022-10-19T06:12:06.516Z,9.309022
2022-10-19T06:13:06.513Z,9.308961
2022-10-19T06:14:06.496Z,9.308855
2022-10-19T06:15:06.570Z,9.308842
2022-10-19T06:16:06.524Z,9.309109
2022-10-19T06:17:06.590Z,9.309069
2022-10-19T06:18:06.561Z,9.309046
2022-10-19T06:19:06.559Z,9.308974
2022-10-19T06:20:06.541Z,9.309030
2022-10-19T06:21:06.553Z,9.309101
2022-10-19T06:22:06.587Z,9.309058
2022-10-19T06:23:06.499Z,9.309075
2022-10-19T06:24:06.498Z,9.309161
2022-10-19T06:25:06.500Z,9.309115
2022-10-19T06:26:06.535Z,9.309050
2022-10-19T06:27:06.429Z,9.308967
2022-10-19T06:28:06.436Z,9.309044
2022-10-19T06:29:06.474Z,9.309045
2022-10-19T06:30:06.486Z,9.309093
2022-10-19T06:31:08.555Z,9.309103
2022-10-19T06:32:06.436Z,9.309103
2022-10-19T06:33:06.925Z,9.309073
2022-10-19T06:34:06.481Z,9.309034
2022-10-19T06:35:06.571Z,9.309115
2022-10-19T06:36:06.413Z,9.309086
2022-10-19T06:37:06.435Z,9.309036
2022-10-19T06:38:06.499Z,9.308947
2022-10-19T06:39:06.469Z,9.308928
2022-10-19T06:40:07.331Z,9.309172
2022-10-19T06:41:07.413Z,9.309005
2022-10-19T06:42:06.325Z,9.308949
2022-10-19T06:43:06.293Z,9.309031
2022-10-19T06:44:07.169Z,9.309115
2022-10-19T06:45:06.291Z,9.309080
2022-10-19T06:46:06.365Z,9.308898
2022-10-19T06:47:08.130Z,9.308998
2022-10-19T06:48:07.723Z,9.309096
2022-10-19T06:49:07.368Z,9.308880
2022-10-19T06:50:06.368Z,9.308697
2022-10-19T06:51:06.626Z,9.308730
2022-10-19T06:52:06.330Z,9.308830
2022-10-19T06:53:06.309Z,9.308750
2022-10-19T06:54:06.365Z,9.308831
2022-10-19T06:55:06.319Z,9.308949
2022-10-19T06:56:06.256Z,9.309054
2022-10-19T06:57:06.202Z,9.309219
2022-10-19T06:58:06.175Z,9.309036
2022-10-19T06:59:06.163Z,9.308955
2022-10-19T07:00:06.229Z,9.308956
2022-10-19T07:01:06.203Z,9.308992
2022-10-19T07:02:06.159Z,9.308973
2022-10-19T07:03:06.138Z,9.309165
2022-10-19T07:04:06.150Z,9.309038
2022-10-19T07:05:07.240Z,9.309011
2022-10-19T07:06:07.164Z,9.309131
2022-10-19T07:07:06.163Z,9.309125
2022-10-19T07:08:07.162Z,9.309023
2022-10-19T07:09:06.175Z,9.309030
2022-10-19T07:10:06.487Z,9.308919
2022-10-19T07:11:06.191Z,9.308934
2022-10-19T07:12:06.173Z,9.309095
2022-10-19T07:13:07.198Z,9.309128
2022-10-19T07:14:06.180Z,9.309060
2022-10-19T07:15:06.209Z,9.309155
2022-10-19T07:16:06.163Z,9.309065
2022-10-19T07:17:06.211Z,9.309088
2022-10-19T07:18:06.137Z,9.309049
2022-10-19T07:19:06.017Z,9.309096
2022-10-19T07:20:06.037Z,9.309152
2022-10-19T07:21:06.030Z,9.309125
2022-10-19T07:22:06.049Z,9.309099
2022-10-19T07:23:06.111Z,9.309092
2022-10-19T07:24:06.128Z,9.309050
2022-10-19T07:25:06.086Z,9.309043
2022-10-19T07:26:06.046Z,9.309095
2022-10-19T07:27:06.050Z,9.309063
2022-10-19T07:28:06.106Z,9.309179
2022-10-19T07:29:06.055Z,9.309176
2022-10-19T07:30:05.959Z,9.309154
2022-10-19T07:31:06.072Z,9.309130
2022-10-19T07:32:06.021Z,9.309137
2022-10-19T07:33:06.106Z,9.309099
2022-10-19T07:34:06.029Z,9.309100
2022-10-19T07:35:05.992Z,9.309153
2022-10-19T07:36:06.032Z,9.309136
2022-10-19T07:37:05.982Z,9.309150
2022-10-19T07:38:06.061Z,9.309115
2022-10-19T07:39:06.309Z,9.309147
2022-10-19T07:40:05.876Z,9.309131
2022-10-19T07:41:05.895Z,9.309126
2022-10-19T07:42:05.971Z,9.309073
2022-10-19T07:43:05.845Z,9.309130
2022-10-19T07:44:06.062Z,9.309086
2022-10-19T07:45:05.939Z,9.309047
2022-10-19T07:46:05.998Z,9.309057
2022-10-19T07:47:05.899Z,9.309102
2022-10-19T07:48:05.913Z,9.309125
2022-10-19T07:49:05.889Z,9.309125
2022-10-19T07:50:05.943Z,9.309155
2022-10-19T07:51:05.889Z,9.309095
2022-10-19T07:52:05.879Z,9.309138
2022-10-19T07:53:05.920Z,9.309132
2022-10-19T07:54:05.798Z,9.309130
2022-10-19T07:55:05.812Z,9.309181
2022-10-19T07:56:05.846Z,9.309141
2022-10-19T07:57:05.737Z,9.309131
2022-10-19T07:58:05.738Z,9.309030
2022-10-19T07:59:05.736Z,9.309070
2022-10-19T08:00:05.747Z,9.309064
2022-10-19T08:01:05.776Z,9.309026
2022-10-19T08:02:05.840Z,9.309037
2022-10-19T08:05:11.476Z,9.309041
2022-10-19T08:06:06.737Z,9.309078
2022-10-19T08:07:05.821Z,9.309125
2022-10-19T08:08:05.806Z,9.309241
2022-10-19T08:09:05.849Z,9.309084
2022-10-19T08:10:05.739Z,9.308984
2022-10-19T08:11:05.756Z,9.309080
2022-10-19T08:12:05.899Z,9.309109
2022-10-19T08:13:05.732Z,9.309084
2022-10-19T08:14:05.762Z,9.309060
2022-10-19T08:15:05.725Z,9.309132
2022-10-19T08:16:05.612Z,9.309114
2022-10-19T08:17:05.627Z,9.309093
2022-10-19T08:18:05.710Z,9.309082
2022-10-19T08:19:05.849Z,9.309093
2022-10-19T08:20:05.585Z,9.309101
2022-10-19T08:21:05.684Z,9.309099
2022-10-19T08:22:05.742Z,9.309096
2022-10-19T08:23:05.657Z,9.309114
2022-10-19T08:24:05.741Z,9.309078
2022-10-19T08:25:05.655Z,9.309074
2022-10-19T08:26:05.713Z,9.309137
2022-10-19T08:27:05.647Z,9.309115
2022-10-19T08:28:05.671Z,9.309095
2022-10-19T08:29:05.597Z,9.309077
2022-10-19T08:30:05.611Z,9.309027
2022-10-19T08:31:05.555Z,9.309021
2022-10-19T08:32:05.496Z,9.309060
2022-10-19T08:33:06.355Z,9.309111
2022-10-19T08:34:05.662Z,9.309006
2022-10-19T08:35:09.935Z,9.309031
2022-10-19T08:36:07.521Z,9.309013
2022-10-19T08:37:14.684Z,9.309113
2022-10-19T08:38:07.546Z,9.309040
2022-10-19T08:39:05.553Z,9.309083
2022-10-19T08:40:05.572Z,9.309087
2022-10-19T08:41:05.613Z,9.309084
2022-10-19T08:42:05.549Z,9.309119
2022-10-19T08:43:05.534Z,9.309151
2022-10-19T08:44:07.726Z,9.309019
2022-10-19T08:45:05.602Z,9.308980
2022-10-19T08:46:05.524Z,9.308975
2022-10-19T08:47:07.199Z,9.309051
2022-10-19T08:48:05.475Z,9.309124
2022-10-19T08:49:05.432Z,9.309096
2022-10-19T08:50:05.396Z,9.309031
2022-10-19T08:51:05.442Z,9.309095
2022-10-19T08:52:05.375Z,9.309063
2022-10-19T08:53:05.359Z,9.309126
2022-10-19T08:54:05.340Z,9.309118
2022-10-19T08:55:05.436Z,9.309063
2022-10-19T08:56:05.347Z,9.309047
2022-10-19T08:57:05.409Z,9.309040
2022-10-19T08:58:06.315Z,9.309044
2022-10-19T08:59:05.425Z,9.308963
2022-10-19T09:00:06.075Z,9.309050
2022-10-19T09:01:05.405Z,9.309029
2022-10-19T09:02:05.373Z,9.309130
2022-10-19T09:03:05.353Z,9.309140
2022-10-19T09:04:05.405Z,9.309104
2022-10-19T09:05:05.353Z,9.309065
2022-10-19T09:06:05.418Z,9.309067
2022-10-19T09:07:05.342Z,9.309021
2022-10-19T09:08:05.383Z,9.309031
2022-10-19T09:09:05.416Z,9.309114
2022-10-19T09:10:05.403Z,9.309155
2022-10-19T09:11:05.362Z,9.309091
2022-10-19T09:12:05.268Z,9.309097
2022-10-19T09:13:05.290Z,9.309052
2022-10-19T09:14:05.914Z,9.309086
2022-10-19T09:15:05.216Z,9.309122
2022-10-19T09:16:05.254Z,9.309125
2022-10-19T09:17:05.238Z,9.309103
2022-10-19T09:18:05.184Z,9.309059
2022-10-19T09:19:05.197Z,9.308951
2022-10-19T09:20:05.266Z,9.308980
2022-10-19T09:21:05.233Z,9.308924
2022-10-19T09:22:05.340Z,9.309014
2022-10-19T09:23:06.812Z,9.309098
2022-10-19T09:24:05.230Z,9.309107
2022-10-19T09:25:05.216Z,9.309080
2022-10-19T09:26:05.214Z,9.309044
2022-10-19T09:27:05.197Z,9.309085
2022-10-19T09:28:05.282Z,9.309051
2022-10-19T09:29:05.240Z,9.309103
2022-10-19T09:30:05.169Z,9.309106
2022-10-19T09:31:05.276Z,9.309108
2022-10-19T09:32:05.169Z,9.309121
2022-10-19T09:33:05.723Z,9.309100
2022-10-19T09:34:05.169Z,9.309108
2022-10-19T09:35:05.103Z,9.309120
2022-10-19T09:36:05.135Z,9.309123
2022-10-19T09:37:05.247Z,9.309155
2022-10-19T09:38:05.150Z,9.309120
2022-10-19T09:39:05.179Z,9.309092
2022-10-19T09:40:05.248Z,9.309082
2022-10-19T09:41:05.133Z,9.309015
2022-10-19T09:42:05.121Z,9.309000
2022-10-19T09:43:05.178Z,9.309069
2022-10-19T09:44:05.147Z,9.309068
2022-10-19T09:45:05.000Z,9.309029
2022-10-19T09:46:11.596Z,9.308975
2022-10-19T09:47:09.065Z,9.309033
2022-10-19T09:48:12.179Z,9.308960
2022-10-19T09:49:06.138Z,9.309031
2022-10-19T09:50:04.998Z,9.309006
2022-10-19T09:51:04.959Z,9.308989
2022-10-19T09:52:04.989Z,9.309059
2022-10-19T09:53:04.993Z,9.308991
2022-10-19T09:54:04.999Z,9.309063
2022-10-19T09:55:04.975Z,9.309145
2022-10-19T09:56:04.962Z,9.309117
2022-10-19T09:57:05.024Z,9.309016
2022-10-19T09:58:04.957Z,9.309014
2022-10-19T09:59:04.912Z,9.309093
2022-10-19T10:00:05.038Z,9.309007
2022-10-19T10:01:05.039Z,9.309080
2022-10-19T10:02:05.190Z,9.309100
2022-10-19T10:03:05.031Z,9.309014
2022-10-19T10:04:05.036Z,9.309090
2022-10-19T10:05:05.024Z,9.309006
2022-10-19T10:06:05.321Z,9.309112
2022-10-19T10:07:05.073Z,9.309089
2022-10-19T10:08:05.063Z,9.309141
2022-10-19T10:09:05.109Z,9.309068
2022-10-19T10:10:05.164Z,9.309093
2022-10-19T10:11:04.984Z,9.309015
2022-10-19T10:12:04.945Z,9.309070
2022-10-19T10:13:04.914Z,9.309072
2022-10-19T10:14:07.516Z,9.309069
2022-10-19T10:15:05.838Z,9.309036
2022-10-19T10:16:04.836Z,9.309087
2022-10-19T10:17:04.990Z,9.309050
2022-10-19T10:18:04.797Z,9.309035
2022-10-19T10:19:04.957Z,9.309048
2022-10-19T10:20:04.859Z,9.309045
2022-10-19T10:21:06.946Z,9.309035
2022-10-19T10:22:04.915Z,9.308981
2022-10-19T10:23:04.823Z,9.308891
2022-10-19T10:24:04.844Z,9.308887
2022-10-19T10:25:04.826Z,9.308805
2022-10-19T10:26:04.858Z,9.308649
2022-10-19T10:27:04.884Z,9.308826
2022-10-19T10:28:04.873Z,9.308945
2022-10-19T10:29:04.737Z,9.309033
2022-10-19T10:30:04.757Z,9.309011
2022-10-19T10:31:04.744Z,9.309052
2022-10-19T10:32:04.864Z,9.309188
2022-10-19T10:33:15.896Z,9.308964
2022-10-19T10:34:16.340Z,9.308913
2022-10-19T10:35:06.677Z,9.308780
2022-10-19T10:36:04.676Z,9.308916
2022-10-19T10:37:04.761Z,9.308902
2022-10-19T10:38:04.720Z,9.308902
2022-10-19T10:39:04.784Z,9.308829
2022-10-19T10:40:05.140Z,9.308990
2022-10-19T10:41:04.698Z,9.308981
2022-10-19T10:42:04.910Z,9.308873
2022-10-19T10:43:04.897Z,9.308834
2022-10-19T10:44:05.295Z,9.308985
2022-10-19T10:45:06.353Z,9.309016
2022-10-19T10:46:04.822Z,9.308923
2022-10-19T10:47:04.765Z,9.308932
2022-10-19T10:48:04.727Z,9.308906
2022-10-19T10:49:04.719Z,9.308908
2022-10-19T10:50:04.792Z,9.308929
2022-10-19T10:51:04.706Z,9.308941
2022-10-19T10:52:04.795Z,9.308937
2022-10-19T10:53:04.681Z,9.308850
2022-10-19T10:54:04.567Z,9.308797
2022-10-19T10:55:04.624Z,9.308919
2022-10-19T10:56:04.539Z,9.308904
2022-10-19T10:57:06.628Z,9.308915
2022-10-19T10:58:04.552Z,9.308957
2022-10-19T10:59:04.539Z,9.308920
2022-10-19T11:00:04.527Z,9.309021
2022-10-19T11:01:07.752Z,9.308985
2022-10-19T11:02:04.626Z,9.309019
2022-10-19T11:03:04.705Z,9.309052
2022-10-19T11:04:04.643Z,9.309019
2022-10-19T11:05:04.728Z,9.309002
2022-10-19T11:06:04.730Z,9.308958
2022-10-19T11:07:04.499Z,9.308917
2022-10-19T11:08:04.507Z,9.308854
2022-10-19T11:09:04.556Z,9.308962
2022-10-19T11:10:04.559Z,9.308971
2022-10-19T11:11:04.576Z,9.308922
2022-10-19T11:12:04.605Z,9.308877
2022-10-19T11:13:04.485Z,9.308957
2022-10-19T11:14:04.483Z,9.309009
2022-10-19T11:15:04.549Z,9.308946
2022-10-19T11:16:04.593Z,9.308960
2022-10-19T11:17:05.128Z,9.308933
2022-10-19T11:18:04.567Z,9.308964
2022-10-19T11:19:04.374Z,9.308975
2022-10-19T11:20:04.347Z,9.309006
2022-10-19T11:21:04.448Z,9.308948
2022-10-19T11:22:04.343Z,9.308875
2022-10-19T11:23:04.365Z,9.308928
2022-10-19T11:24:04.418Z,9.309007
2022-10-19T11:25:04.276Z,9.309038
2022-10-19T11:26:04.618Z,9.309010
2022-10-19T11:27:04.488Z,9.309052
2022-10-19T11:28:04.702Z,9.308991
2022-10-19T11:29:04.421Z,9.308993
2022-10-19T11:30:04.360Z,9.309071
2022-10-19T11:31:04.352Z,9.309083
2022-10-19T11:32:04.318Z,9.309076
2022-10-19T11:33:04.350Z,9.309036
2022-10-19T11:34:04.388Z,9.309052
2022-10-19T11:35:04.366Z,9.309071
2022-10-19T11:36:04.384Z,9.308962
2022-10-19T11:37:04.347Z,9.308985
2022-10-19T11:38:19.759Z,9.308963
2022-10-19T11:39:06.453Z,9.309040
2022-10-19T11:40:04.310Z,9.309016
2022-10-19T11:41:19.775Z,9.309028
2022-10-19T11:42:06.372Z,9.308925
2022-10-19T11:43:04.234Z,9.309033
2022-10-19T11:44:04.201Z,9.309022
2022-10-19T11:45:04.307Z,9.309030
2022-10-19T11:46:04.175Z,9.309040
2022-10-19T11:47:04.166Z,9.309005